Time;durP1;ratioP1;P1;durP2;ratioP2;P2;SDS_P1;SDS_P2;PMS_P1;PMS_P2;Temp;Humidity;BMP_temperature;BMP_pressure;BME280_temperature;BME280_humidity;BME280_pressure;Samples;Min_cycle;Max_cycle;Signal;HPM_P1;HPM_P2
2022/02/15 00:01:37;;;;;;;;;;;;;;;29.06;55.61;100889.72;5073912;28;69716;-39
2022/02/15 00:04:07;;;;;;;;;;;;;;;29.02;57.89;100888.44;5076300;28;65423;-36
2022/02/15 00:06:38;;;;;;;;;;;;;;;29.07;58.51;100896.81;5080173;28;69540;-38
2022/02/15 00:09:07;;;;;;;;;;;;;;;29.16;58.75;100898.25;5074455;27;66585;-40
2022/02/15 00:11:37;;;;;;;;;;;;;;;29.24;59.04;100903.44;5078683;27;69780;-39
2022/02/15 00:14:07;;;;;;;;;;;;;;;29.34;59.31;100903.03;5080569;28;66173;-39
2022/02/15 00:16:37;;;;;;;;;;;;;;;29.42;59.96;100904.66;5074181;28;70077;-40
2022/02/15 00:19:08;;;;;;;;;;;;;;;29.48;59.47;100899.25;5074408;28;66809;-38
2022/02/15 00:21:38;;;;;;;;;;;;;;;29.56;60.38;100898.19;5076387;28;69945;-40
2022/02/15 00:24:08;;;;;;;;;;;;;;;29.51;61.12;100912.34;5076761;28;66730;-40
2022/02/15 00:26:38;;;;;;;;;;;;;;;29.54;62.36;100908.41;5077046;28;70193;-39
2022/02/15 00:29:07;;;;;;;;;;;;;;;29.59;63.65;100916.72;5072293;28;66635;-38
2022/02/15 00:31:37;;;;;;;;;;;;;;;29.66;63.06;100912.16;5066498;28;69771;-39
2022/02/15 00:34:07;;;;;;;;;;;;;;;29.72;63.42;100915.88;5071617;28;65602;-39
2022/02/15 00:36:37;;;;;;;;;;;;;;;29.76;62.30;100912.53;5056575;28;70555;-38
2022/02/15 00:39:07;;;;;;;;;;;;;;;29.83;61.70;100907.94;5081554;27;65554;-38
2022/02/15 00:41:37;;;;;;;;;;;;;;;29.87;61.82;100915.66;5094058;27;69384;-38
2022/02/15 00:44:06;;;;;;;;;;;;;;;29.92;61.44;100915.81;5081033;28;66090;-37
2022/02/15 00:46:37;;;;;;;;;;;;;;;29.96;61.23;100919.75;5079856;27;70268;-39
2022/02/15 00:49:09;;;;;;;;;;;;;;;29.98;60.95;100926.63;5078753;28;66292;-37
2022/02/15 00:51:40;;;;;;;;;;;;;;;30.02;60.34;100922.44;5048413;28;70517;-36
2022/02/15 00:54:10;;;;;;;;;;;;;;;30.06;60.27;100926.41;5081769;28;65683;-38
2022/02/15 00:56:40;;;;;;;;;;;;;;;30.07;59.71;100924.50;5076669;28;69796;-37
2022/02/15 00:59:12;;;;;;;;;;;;;;;30.11;59.32;100925.72;5078943;27;66728;-39
2022/02/15 01:01:42;;;;;;;;;;;;;;;30.13;59.43;100931.75;5080484;28;70142;-37
2022/02/15 01:04:12;;;;;;;;;;;;;;;30.14;59.01;100936.13;5081485;28;66296;-38
2022/02/15 01:06:42;;;;;;;;;;;;;;;30.15;58.23;100940.50;5059493;28;70253;-35
2022/02/15 01:09:14;;;;;;;;;;;;;;;30.18;58.43;100942.78;5081010;28;66106;-38
2022/02/15 01:11:44;;;;;;;;;;;;;;;30.19;57.93;100955.25;5080989;27;69458;-37
2022/02/15 01:14:15;;;;;;;;;;;;;;;30.21;57.85;100953.16;5080599;28;66768;-37
2022/02/15 01:16:44;;;;;;;;;;;;;;;30.22;58.18;100949.44;5080531;27;69981;-37
2022/02/15 01:19:14;;;;;;;;;;;;;;;30.24;57.70;100955.47;5076999;28;66860;-38
2022/02/15 01:21:44;;;;;;;;;;;;;;;30.27;57.33;100952.34;5078701;28;69720;-37
2022/02/15 01:24:14;;;;;;;;;;;;;;;30.28;57.59;100958.56;5081928;27;66885;-37
2022/02/15 01:26:43;;;;;;;;;;;;;;;30.29;57.10;100952.13;5095015;27;70724;-37
2022/02/15 01:29:13;;;;;;;;;;;;;;;30.31;56.78;100957.31;5090133;27;66255;-38
2022/02/15 01:31:44;;;;;;;;;;;;;;;30.33;56.61;100966.06;5072138;28;70517;-37
2022/02/15 01:34:14;;;;;;;;;;;;;;;30.35;57.04;100958.56;5070991;28;66267;-38
2022/02/15 01:36:44;;;;;;;;;;;;;;;30.35;56.68;100964.81;5091500;27;69505;-38
2022/02/15 01:39:19;;;;;;;;;;;;;;;30.38;56.66;100958.13;5076055;27;66574;-38
2022/02/15 01:41:49;;;;;;;;;;;;;;;30.39;56.32;100962.50;5076746;27;69334;-38
2022/02/15 01:44:19;;;;;;;;;;;;;;;30.41;56.22;100965.81;5091578;27;66116;-38
2022/02/15 01:46:51;;;;;;;;;;;;;;;30.43;56.67;100955.63;5093364;27;70847;-38
2022/02/15 01:49:20;;;;;;;;;;;;;;;30.44;56.05;100959.97;5078666;28;65617;-38
2022/02/15 01:51:50;;;;;;;;;;;;;;;30.44;56.30;100959.97;5076874;28;70475;-38
2022/02/15 01:54:20;;;;;;;;;;;;;;;30.47;55.64;100962.25;5080267;28;66658;-37
2022/02/15 01:56:52;;;;;;;;;;;;;;;30.48;56.14;100967.47;5078642;28;70088;-38
2022/02/15 01:59:23;;;;;;;;;;;;;;;30.50;55.28;100959.09;5080258;28;66771;-38
2022/02/15 02:01:53;;;;;;;;;;;;;;;30.51;55.56;100971.63;5079674;28;69933;-38
2022/02/15 02:07:11;;;;;;;;;;;;;;;30.55;55.63;100956.59;5066324;28;69313;-37
2022/02/15 02:09:40;;;;;;;;;;;;;;;30.55;55.32;100959.28;5073671;28;65874;-38
2022/02/15 02:12:11;;;;;;;;;;;;;;;30.58;55.48;100964.28;5088164;27;70041;-39
2022/02/15 02:15:02;;;;;;;;;;;;;;;30.59;55.48;100960.53;5072224;28;66596;-39
2022/02/15 02:18:08;;;;;;;;;;;;;;;30.62;55.17;100970.06;5062857;28;69759;-37
2022/02/15 02:20:39;;;;;;;;;;;;;;;30.63;54.56;100961.75;5077330;28;66099;-38
2022/02/15 02:23:10;;;;;;;;;;;;;;;30.64;54.71;100957.97;5077963;28;70254;-39
2022/02/15 02:25:42;;;;;;;;;;;;;;;30.66;54.43;100960.50;5079369;28;66245;-37
2022/02/15 02:28:15;;;;;;;;;;;;;;;30.68;54.36;100959.22;5080382;27;70393;-38
2022/02/15 02:30:44;;;;;;;;;;;;;;;30.69;54.23;100955.47;5079996;27;65499;-39
2022/02/15 02:33:14;;;;;;;;;;;;;;;30.72;54.51;100965.03;5079211;28;69893;-38
2022/02/15 02:35:44;;;;;;;;;;;;;;;30.73;54.33;100967.53;5076702;28;66987;-37
2022/02/15 02:38:14;;;;;;;;;;;;;;;30.75;54.50;100963.75;5075358;28;70243;-38
2022/02/15 02:40:46;;;;;;;;;;;;;;;30.77;54.04;100977.94;5091687;27;67303;-39
2022/02/15 02:43:16;;;;;;;;;;;;;;;30.79;54.16;100970.44;5079711;28;69833;-40
2022/02/15 02:45:45;;;;;;;;;;;;;;;30.81;54.02;100963.75;5092753;27;66051;-37
2022/02/15 02:48:16;;;;;;;;;;;;;;;30.83;54.24;100966.25;5077262;28;70371;-38
2022/02/15 02:50:47;;;;;;;;;;;;;;;30.85;53.76;100964.16;5078180;28;66149;-36
2022/02/15 02:53:17;;;;;;;;;;;;;;;30.87;54.11;100965.59;5092668;27;70214;-39
2022/02/15 02:55:47;;;;;;;;;;;;;;;30.89;53.66;100968.91;5078400;28;65002;-37
2022/02/15 02:58:17;;;;;;;;;;;;;;;30.90;53.57;100961.63;5061246;28;69856;-39
2022/02/15 03:00:46;;;;;;;;;;;;;;;30.93;53.61;100961.19;5079280;28;65784;-38
2022/02/15 03:03:18;;;;;;;;;;;;;;;30.94;53.85;100962.84;5080199;27;70804;-38
2022/02/15 03:05:51;;;;;;;;;;;;;;;30.96;53.53;100960.75;5078511;28;67046;-38
2022/02/15 03:08:20;;;;;;;;;;;;;;;30.98;53.20;100964.09;5075298;28;70503;-38
2022/02/15 03:10:52;;;;;;;;;;;;;;;31.01;53.66;100966.34;5074810;28;66084;-39
2022/02/15 03:13:33;;;;;;;;;;;;;;;31.02;53.00;100961.75;5084446;27;69982;-37
2022/02/15 03:16:07;;;;;;;;;;;;;;;31.03;53.49;100953.38;5079747;28;65449;-39
2022/02/15 03:18:37;;;;;;;;;;;;;;;31.06;53.52;100955.66;5095337;27;69796;-39
2022/02/15 03:21:11;;;;;;;;;;;;;;;31.08;53.45;100958.97;5092848;27;66201;-40
2022/02/15 03:23:41;;;;;;;;;;;;;;;31.10;52.87;100956.91;5079015;28;69973;-38
2022/02/15 03:26:13;;;;;;;;;;;;;;;31.13;53.21;100961.03;5079008;28;67050;-38
2022/02/15 03:28:44;;;;;;;;;;;;;;;31.15;52.79;100951.66;5051686;28;68890;-38
2022/02/15 03:31:15;;;;;;;;;;;;;;;31.19;52.55;100956.63;5077943;28;65465;-37
2022/02/15 03:33:50;;;;;;;;;;;;;;;31.21;52.47;100946.41;5077271;28;69706;-36
2022/02/15 03:36:20;;;;;;;;;;;;;;;31.22;52.40;100945.34;5075754;28;66025;-38
2022/02/15 03:38:55;;;;;;;;;;;;;;;31.24;52.28;100940.53;5078056;28;70625;-37
2022/02/15 03:44:26;;;;;;;;;;;;;;;31.29;52.73;100943.41;5091531;27;69282;-38
2022/02/15 03:47:03;;;;;;;;;;;;;;;31.32;52.38;100942.97;5077164;28;66636;-38
2022/02/15 03:49:39;;;;;;;;;;;;;;;31.34;52.32;100935.41;5072853;28;70548;-39
2022/02/15 03:52:12;;;;;;;;;;;;;;;31.36;52.21;100933.34;5091016;27;65896;-38
2022/02/15 03:54:44;;;;;;;;;;;;;;;31.39;52.06;100922.06;5076790;28;70083;-38
2022/02/15 03:57:14;;;;;;;;;;;;;;;31.42;52.00;100926.22;5079987;28;65668;-38
2022/02/15 03:59:45;;;;;;;;;;;;;;;31.44;52.38;100919.53;5094441;27;69908;-38
2022/02/15 04:02:21;;;;;;;;;;;;;;;31.47;51.68;100913.66;5079052;28;65334;-38
2022/02/15 04:04:52;;;;;;;;;;;;;;;31.49;51.95;100906.13;5068752;28;70029;-38
2022/02/15 04:07:25;;;;;;;;;;;;;;;31.51;52.05;100904.03;5078213;28;67217;-38
2022/02/15 04:09:57;;;;;;;;;;;;;;;31.54;51.55;100897.34;5076045;27;70188;-39
2022/02/15 04:12:28;;;;;;;;;;;;;;;31.58;51.82;100901.25;5058765;28;66193;-37
2022/02/15 04:14:59;;;;;;;;;;;;;;;31.60;51.54;100882.88;5097647;27;70864;-39
2022/02/15 04:17:38;;;;;;;;;;;;;;;31.63;51.52;100889.72;5073552;28;66070;-38
2022/02/15 04:20:08;;;;;;;;;;;;;;;31.64;51.85;100875.94;5079135;28;70532;-37
2022/02/15 04:22:37;;;;;;;;;;;;;;;31.66;51.39;100873.00;5081507;28;65076;-39
2022/02/15 04:25:08;;;;;;;;;;;;;;;31.68;51.42;100871.72;5082097;28;70436;-38
2022/02/15 04:27:38;;;;;;;;;;;;;;;31.69;51.64;100861.69;5081174;28;66975;-39
2022/02/15 04:30:09;;;;;;;;;;;;;;;31.73;51.17;100865.59;5081022;28;70198;-37
2022/02/15 04:32:42;;;;;;;;;;;;;;;31.74;51.70;100864.56;5084324;27;66694;-37
2022/02/15 04:35:13;;;;;;;;;;;;;;;31.75;51.45;100860.78;5098551;27;70059;-39
2022/02/15 04:37:46;;;;;;;;;;;;;;;31.75;51.31;100847.22;5081114;28;65388;-38
2022/02/15 04:40:17;;;;;;;;;;;;;;;31.78;51.38;100844.06;5080463;27;69737;-38
2022/02/15 04:42:50;;;;;;;;;;;;;;;31.79;51.62;100853.88;5078922;28;65336;-38
2022/02/15 04:45:20;;;;;;;;;;;;;;;31.81;51.41;100849.03;5081208;28;69743;-38
2022/02/15 04:47:53;;;;;;;;;;;;;;;31.82;51.33;100823.59;5056670;28;66902;-37
2022/02/15 04:50:25;;;;;;;;;;;;;;;31.83;51.41;100823.34;5081349;28;69556;-38
2022/02/15 04:52:56;;;;;;;;;;;;;;;31.85;51.47;100817.69;5061852;28;65313;-37
2022/02/15 04:55:25;;;;;;;;;;;;;;;31.87;51.26;100803.88;5098098;27;70594;-38
2022/02/15 04:57:59;;;;;;;;;;;;;;;31.88;51.30;100811.00;5080672;28;65761;-39
2022/02/15 05:00:37;;;;;;;;;;;;;;;31.89;50.94;100794.47;5077135;28;69349;-38
2022/02/15 05:03:13;;;;;;;;;;;;;;;31.91;50.82;100797.81;5055312;28;65457;-38
2022/02/15 05:05:45;;;;;;;;;;;;;;;31.94;51.28;100788.41;5059087;28;70346;-39
2022/02/15 05:08:20;;;;;;;;;;;;;;;31.96;50.81;100789.00;5088357;27;66258;-38
2022/02/15 05:10:55;;;;;;;;;;;;;;;31.98;51.29;100785.00;5071251;28;69838;-37
2022/02/15 05:13:31;;;;;;;;;;;;;;;32.00;51.23;100777.44;5091577;27;67193;-39
2022/02/15 05:16:36;;;;;;;;;;;;;;;32.02;50.83;100769.91;5078711;28;68955;-37
2022/02/15 05:19:18;;;;;;;;;;;;;;;32.03;50.83;100766.13;5074971;28;66291;-39
2022/02/15 05:21:59;;;;;;;;;;;;;;;32.05;50.85;100757.75;5094541;27;69333;-38
2022/02/15 05:24:39;;;;;;;;;;;;;;;32.06;50.67;100748.56;5074824;28;66256;-38
2022/02/15 05:27:10;;;;;;;;;;;;;;;32.08;50.81;100745.63;5069316;28;69429;-38
2022/02/15 05:29:44;;;;;;;;;;;;;;;32.11;50.79;100739.72;5075113;28;66329;-38
2022/02/15 05:32:32;;;;;;;;;;;;;;;32.12;50.72;100735.94;5083967;27;69855;-38
2022/02/15 05:35:07;;;;;;;;;;;;;;;32.15;50.74;100730.06;5081714;28;66874;-40
2022/02/15 05:37:41;;;;;;;;;;;;;;;32.17;50.70;100722.50;5078445;28;70249;-38
2022/02/15 05:40:13;;;;;;;;;;;;;;;32.20;50.72;100711.19;5078967;28;65812;-38
2022/02/15 05:42:52;;;;;;;;;;;;;;;32.21;50.81;100707.44;5080608;28;69744;-37
2022/02/15 05:45:21;;;;;;;;;;;;;;;32.22;50.34;100698.22;5075251;28;66439;-38
2022/02/15 05:48:20;;;;;;;;;;;;;;;32.24;50.56;100696.09;5072723;27;70181;-38
2022/02/15 05:50:54;;;;;;;;;;;;;;;32.26;50.57;100683.09;5074246;28;67050;-38
2022/02/15 05:53:52;;;;;;;;;;;;;;;32.28;50.31;100675.56;5092645;27;70563;-39
2022/02/15 05:56:32;;;;;;;;;;;;;;;32.31;50.07;100672.38;5080554;28;66782;-38
2022/02/15 05:59:31;;;;;;;;;;;;;;;32.32;50.35;100676.75;5072583;28;70181;-38
2022/02/15 06:02:09;;;;;;;;;;;;;;;32.34;50.59;100658.31;5074597;28;65569;-38
2022/02/15 06:05:04;;;;;;;;;;;;;;;32.36;50.00;100661.63;5068310;27;70658;-38
2022/02/15 06:07:37;;;;;;;;;;;;;;;32.39;50.54;100644.06;5080103;27;65841;-38
2022/02/15 06:10:27;;;;;;;;;;;;;;;32.41;50.32;100642.75;5080054;27;70662;-39
2022/02/15 06:13:15;;;;;;;;;;;;;;;32.44;50.14;100638.75;5096503;27;66511;-39
2022/02/15 06:15:46;;;;;;;;;;;;;;;32.45;50.20;100638.50;5074559;28;71123;-39
2022/02/15 06:18:24;;;;;;;;;;;;;;;32.47;49.91;100630.97;5076219;28;66848;-38
2022/02/15 06:21:00;;;;;;;;;;;;;;;32.51;50.25;100625.06;5078914;28;69434;-38
2022/02/15 06:23:30;;;;;;;;;;;;;;;32.54;50.14;100619.16;5096262;27;67110;-38
2022/02/15 06:26:08;;;;;;;;;;;;;;;32.56;49.96;100611.63;5078865;28;70459;-38
2022/02/15 06:28:55;;;;;;;;;;;;;;;32.59;49.99;100600.28;5079002;27;65992;-38
2022/02/15 06:31:33;;;;;;;;;;;;;;;32.60;49.92;100602.75;5094485;27;69048;-38
2022/02/15 06:34:04;;;;;;;;;;;;;;;32.61;50.20;100603.59;5077574;27;66727;-38
2022/02/15 06:36:35;;;;;;;;;;;;;;;32.64;50.00;100594.94;5079290;27;70988;-39
2022/02/15 06:39:09;;;;;;;;;;;;;;;32.65;49.84;100588.44;5079785;28;66819;-39
2022/02/15 06:41:43;;;;;;;;;;;;;;;32.67;50.17;100580.88;5095685;27;70155;-38
2022/02/15 06:44:18;;;;;;;;;;;;;;;32.71;49.64;100582.91;5062007;28;66638;-38
2022/02/15 06:46:50;;;;;;;;;;;;;;;32.72;49.75;100581.00;5080082;28;70571;-39
2022/02/15 06:49:29;;;;;;;;;;;;;;;32.76;49.70;100570.47;5078400;28;65558;-39
2022/02/15 06:52:16;;;;;;;;;;;;;;;32.77;49.71;100564.81;5079797;27;70204;-39
2022/02/15 06:54:54;;;;;;;;;;;;;;;32.80;49.73;100569.75;5074925;28;65315;-38
2022/02/15 06:57:32;;;;;;;;;;;;;;;32.80;49.59;100545.31;5079505;27;70356;-38
2022/02/15 07:00:03;;;;;;;;;;;;;;;32.82;49.64;100545.91;5076506;28;66133;-37
2022/02/15 07:02:37;;;;;;;;;;;;;;;32.85;49.67;100540.00;5055862;28;68957;-37
2022/02/15 07:05:20;;;;;;;;;;;;;;;32.87;49.63;100537.84;5077589;27;67181;-39
2022/02/15 07:07:52;;;;;;;;;;;;;;;32.91;49.41;100533.59;5074405;27;69824;-37
2022/02/15 07:10:25;;;;;;;;;;;;;;;32.92;49.29;100524.34;5061086;28;66312;-38
2022/02/15 07:12:59;;;;;;;;;;;;;;;32.94;49.33;100532.28;5062341;28;70459;-39
2022/02/15 07:15:34;;;;;;;;;;;;;;;32.97;49.24;100531.78;5045831;28;65785;-38
2022/02/15 07:18:16;;;;;;;;;;;;;;;33.01;49.34;100526.72;5064076;28;70679;-39
2022/02/15 07:21:15;;;;;;;;;;;;;;;33.05;49.24;100522.47;5022067;28;66542;-40
2022/02/15 07:24:20;;;;;;;;;;;;;;;33.09;49.20;100512.72;5074305;27;70712;-38
2022/02/15 07:27:26;;;;;;;;;;;;;;;33.12;49.08;100504.09;5094749;27;66638;-38
2022/02/15 07:29:59;;;;;;;;;;;;;;;33.18;49.32;100507.72;5072674;28;69030;-39
2022/02/15 07:32:35;;;;;;;;;;;;;;;33.21;49.17;100499.91;5093886;27;66627;-38
2022/02/15 07:35:05;;;;;;;;;;;;;;;33.25;49.24;100503.78;5094203;27;69402;-38
2022/02/15 07:37:35;;;;;;;;;;;;;;;33.28;48.98;100506.00;5092628;27;66348;-38
2022/02/15 07:40:05;;;;;;;;;;;;;;;33.34;49.05;100509.63;5078764;28;69800;-39
2022/02/15 07:42:35;;;;;;;;;;;;;;;33.36;49.05;100502.88;5095893;27;66328;-39
2022/02/15 07:45:07;;;;;;;;;;;;;;;33.40;48.90;100491.50;5077631;28;70327;-38
2022/02/15 07:47:38;;;;;;;;;;;;;;;33.42;48.88;100483.94;5087465;27;65579;-39
2022/02/15 07:50:13;;;;;;;;;;;;;;;33.45;48.82;100488.88;5073190;28;70134;-38
2022/02/15 07:52:44;;;;;;;;;;;;;;;33.48;48.73;100480.22;5073636;28;64884;-39
2022/02/15 07:55:14;;;;;;;;;;;;;;;33.51;48.79;100485.16;5079128;28;70250;-39
2022/02/15 07:57:44;;;;;;;;;;;;;;;33.52;48.97;100470.53;5055175;28;66567;-39
2022/02/15 08:00:18;;;;;;;;;;;;;;;33.56;48.71;100488.00;5075441;27;69305;-39
2022/02/15 08:02:49;;;;;;;;;;;;;;;33.58;48.55;100485.88;5074312;27;66177;-39
2022/02/15 08:05:20;;;;;;;;;;;;;;;33.61;48.63;100479.94;5072357;28;70178;-38
2022/02/15 08:07:54;;;;;;;;;;;;;;;33.64;48.80;100481.31;5090125;27;66631;-38
2022/02/15 08:10:24;;;;;;;;;;;;;;;33.67;48.56;100484.38;5077414;28;70037;-38
2022/02/15 08:12:57;;;;;;;;;;;;;;;33.70;48.46;100486.59;5078119;27;66347;-38
2022/02/15 08:15:30;;;;;;;;;;;;;;;33.73;48.50;100490.72;5077803;28;70420;-38
2022/02/15 08:18:01;;;;;;;;;;;;;;;33.75;48.67;100488.56;5077347;27;66276;-38
2022/02/15 08:20:32;;;;;;;;;;;;;;;33.78;48.44;100483.44;5079905;28;70354;-38
2022/02/15 08:23:02;;;;;;;;;;;;;;;33.81;48.46;100477.50;5071392;28;66516;-38
2022/02/15 08:25:34;;;;;;;;;;;;;;;33.84;48.55;100481.63;5078981;27;69747;-39
2022/02/15 08:28:03;;;;;;;;;;;;;;;33.88;48.49;100479.22;5073125;28;65979;-37
2022/02/15 08:30:34;;;;;;;;;;;;;;;33.91;48.54;100492.34;5090642;27;70091;-38
2022/02/15 08:33:04;;;;;;;;;;;;;;;33.94;48.35;100479.06;5078351;27;67009;-38
2022/02/15 08:35:34;;;;;;;;;;;;;;;33.99;48.12;100489.16;5079045;28;69735;-39
2022/02/15 08:38:04;;;;;;;;;;;;;;;34.02;48.23;100494.13;5077160;27;65547;-38
2022/02/15 08:40:34;;;;;;;;;;;;;;;34.07;48.10;100498.84;5076721;28;70030;-38
2022/02/15 08:43:04;;;;;;;;;;;;;;;34.11;48.22;100489.94;5060722;28;65427;-38
2022/02/15 08:45:34;;;;;;;;;;;;;;;34.14;48.22;100497.59;5086560;27;70109;-39
2022/02/15 08:48:04;;;;;;;;;;;;;;;34.18;48.24;100493.28;5078934;28;66449;-38
2022/02/15 08:50:36;;;;;;;;;;;;;;;34.21;48.03;100498.25;5077700;28;69426;-37
2022/02/15 08:53:05;;;;;;;;;;;;;;;34.25;48.06;100496.66;5076217;28;65936;-38
2022/02/15 08:55:36;;;;;;;;;;;;;;;34.29;48.02;100498.84;5078649;27;69920;-38
2022/02/15 08:58:05;;;;;;;;;;;;;;;34.30;48.15;100495.91;5094916;27;66715;-38
2022/02/15 09:00:36;;;;;;;;;;;;;;;34.34;48.08;100505.19;5082625;27;70265;-38
2022/02/15 09:03:06;;;;;;;;;;;;;;;34.35;48.15;100497.84;5077410;28;66992;-38
2022/02/15 09:05:35;;;;;;;;;;;;;;;34.37;47.89;100501.97;5079726;28;70469;-38
2022/02/15 09:08:05;;;;;;;;;;;;;;;34.40;47.66;100497.91;5082003;28;66691;-38
2022/02/15 09:10:37;;;;;;;;;;;;;;;34.41;47.78;100499.56;5077963;28;69879;-38
2022/02/15 09:13:20;;;;;;;;;;;;;;;34.43;47.85;100494.69;5077676;27;66871;-38
2022/02/15 09:15:50;;;;;;;;;;;;;;;34.45;47.71;100497.97;5082381;28;69421;-38
2022/02/15 09:18:19;;;;;;;;;;;;;;;34.47;47.61;100512.16;5080540;28;66701;-38
2022/02/15 09:20:49;;;;;;;;;;;;;;;34.49;47.65;100504.53;5080219;28;70317;-38
2022/02/15 09:23:23;;;;;;;;;;;;;;;34.50;47.54;100500.75;5075356;27;65292;-39
2022/02/15 09:26:13;;;;;;;;;;;;;;;34.53;47.83;100510.31;5081647;28;69758;-38
2022/02/15 09:29:00;;;;;;;;;;;;;;;34.55;47.52;100500.84;5074532;28;66340;-39
2022/02/15 09:31:30;;;;;;;;;;;;;;;34.58;47.47;100507.69;5077874;28;69828;-39
2022/02/15 09:33:59;;;;;;;;;;;;;;;34.59;47.35;100504.72;5063587;28;66137;-37
2022/02/15 09:36:29;;;;;;;;;;;;;;;34.59;47.40;100498.44;5080840;28;69268;-39
2022/02/15 09:39:15;;;;;;;;;;;;;;;34.60;47.60;100506.38;5082093;28;64677;-38
2022/02/15 09:41:45;;;;;;;;;;;;;;;34.60;47.67;100509.09;5080274;28;69611;-39
2022/02/15 09:44:15;;;;;;;;;;;;;;;34.61;47.29;100504.47;5080359;28;66128;-38
2022/02/15 09:46:46;;;;;;;;;;;;;;;34.61;47.61;100510.72;5081711;28;70036;-39
2022/02/15 09:52:05;;;;;;;;;;;;;;;34.61;47.45;100512.63;5095573;27;70172;-38
2022/02/15 09:54:35;;;;;;;;;;;;;;;34.61;47.62;100513.47;5078506;28;66073;-38
2022/02/15 09:57:06;;;;;;;;;;;;;;;34.62;47.70;100520.53;5076489;28;70707;-38
2022/02/15 09:59:36;;;;;;;;;;;;;;;34.60;47.56;100525.44;5082174;27;66305;-38
2022/02/15 10:02:09;;;;;;;;;;;;;;;34.60;47.63;100532.75;5077188;28;70306;-38
2022/02/15 10:04:39;;;;;;;;;;;;;;;34.60;47.84;100539.06;5075638;28;66949;-38
2022/02/15 10:07:09;;;;;;;;;;;;;;;34.59;47.75;100542.03;5076224;27;69952;-38
2022/02/15 10:09:41;;;;;;;;;;;;;;;34.59;47.45;100539.31;5078489;27;66875;-39
2022/02/15 10:12:14;;;;;;;;;;;;;;;34.58;47.76;100546.66;5080520;28;69951;-38
2022/02/15 10:14:45;;;;;;;;;;;;;;;34.57;47.72;100561.34;5073515;27;65907;-38
2022/02/15 10:17:19;;;;;;;;;;;;;;;34.56;47.81;100556.97;5073164;28;70141;-39
2022/02/15 10:19:50;;;;;;;;;;;;;;;34.53;47.99;100552.00;5080908;28;66335;-38
2022/02/15 10:22:39;;;;;;;;;;;;;;;34.52;47.90;100569.44;5076932;28;70238;-38
2022/02/15 10:25:11;;;;;;;;;;;;;;;34.52;47.84;100579.47;5078109;28;66348;-37
2022/02/15 10:27:45;;;;;;;;;;;;;;;34.50;47.82;100587.09;5076245;28;69279;-38
2022/02/15 10:30:14;;;;;;;;;;;;;;;34.50;47.79;100587.91;5091008;27;67324;-38
2022/02/15 10:32:45;;;;;;;;;;;;;;;34.48;48.17;100590.06;5078423;27;69903;-39
2022/02/15 10:35:24;;;;;;;;;;;;;;;34.47;48.09;100593.88;5076970;28;66264;-39
2022/02/15 10:37:54;;;;;;;;;;;;;;;34.46;47.72;100586.75;5075086;28;70037;-39
2022/02/15 10:40:24;;;;;;;;;;;;;;;34.42;48.00;100596.53;5069142;28;65411;-40
2022/02/15 10:42:54;;;;;;;;;;;;;;;34.39;48.16;100591.59;5074455;28;69907;-39
2022/02/15 10:45:26;;;;;;;;;;;;;;;34.37;48.43;100593.72;5078445;28;65472;-39
2022/02/15 10:48:04;;;;;;;;;;;;;;;34.36;48.92;100608.41;5080347;28;69593;-40
2022/02/15 10:50:37;;;;;;;;;;;;;;;34.34;48.30;100596.94;5078208;27;66533;-41
2022/02/15 10:53:07;;;;;;;;;;;;;;;34.33;49.01;100595.31;5073483;28;69749;-39
2022/02/15 10:55:38;;;;;;;;;;;;;;;34.06;51.14;100603.34;5068219;28;67410;-42
2022/02/15 10:58:08;;;;;;;;;;;;;;;33.92;51.55;100603.63;5086807;27;70141;-42
2022/02/15 11:00:38;;;;;;;;;;;;;;;33.90;52.08;100605.78;5077134;28;66526;-42
2022/02/15 11:03:09;;;;;;;;;;;;;;;33.90;51.68;100610.41;5077695;28;70755;-42
2022/02/15 11:05:42;;;;;;;;;;;;;;;33.94;51.20;100601.50;5078097;28;65306;-41
2022/02/15 11:08:12;;;;;;;;;;;;;;;33.91;50.61;100599.28;5078950;28;70206;-42
2022/02/15 11:11:02;;;;;;;;;;;;;;;33.88;51.04;100612.53;5078701;28;66492;-42
2022/02/15 11:13:34;;;;;;;;;;;;;;;33.87;51.13;100617.16;5057321;28;68823;-42
2022/02/15 11:16:11;;;;;;;;;;;;;;;33.85;51.70;100618.47;5079986;28;66140;-42
2022/02/15 11:18:41;;;;;;;;;;;;;;;33.85;51.64;100623.91;5080680;28;70147;-42
2022/02/15 11:21:26;;;;;;;;;;;;;;;33.83;52.04;100620.66;5076494;28;65999;-42
2022/02/15 11:24:00;;;;;;;;;;;;;;;33.79;51.81;100632.03;5071403;28;70580;-42
2022/02/15 11:26:31;;;;;;;;;;;;;;;33.75;51.68;100622.69;5071883;28;65780;-42
2022/02/15 11:29:02;;;;;;;;;;;;;;;33.73;51.17;100632.97;5074182;28;70771;-42
2022/02/15 11:31:40;;;;;;;;;;;;;;;33.72;51.24;100636.78;5068145;28;66424;-43
2022/02/15 11:34:10;;;;;;;;;;;;;;;33.69;51.31;100642.72;5073728;28;69475;-43
2022/02/15 11:36:46;;;;;;;;;;;;;;;33.63;51.26;100643.69;5069195;28;67005;-42
2022/02/15 11:39:19;;;;;;;;;;;;;;;33.63;51.47;100648.28;5065714;28;70478;-42
2022/02/15 11:41:50;;;;;;;;;;;;;;;33.59;51.53;100658.84;5072815;28;66976;-48
2022/02/15 11:44:30;;;;;;;;;;;;;;;33.56;51.30;100664.78;5069335;27;69946;-43
2022/02/15 11:47:13;;;;;;;;;;;;;;;33.50;51.35;100666.53;5067059;28;65946;-42
2022/02/15 11:49:50;;;;;;;;;;;;;;;33.49;51.32;100675.78;5073376;28;68872;-42
2022/02/15 11:52:20;;;;;;;;;;;;;;;33.46;51.43;100683.56;5068536;28;66843;-41
2022/02/15 11:54:50;;;;;;;;;;;;;;;33.44;51.17;100683.03;5068049;28;71289;-41
2022/02/15 11:57:21;;;;;;;;;;;;;;;33.40;51.14;100687.28;5021781;28;64712;-42
2022/02/15 11:59:55;;;;;;;;;;;;;;;33.38;51.62;100684.81;5064050;28;70305;-42
2022/02/15 12:02:25;;;;;;;;;;;;;;;33.33;51.24;100682.81;5071151;28;65619;-42
2022/02/15 12:04:57;;;;;;;;;;;;;;;33.33;51.04;100688.25;5069569;27;69202;-42
2022/02/15 12:07:28;;;;;;;;;;;;;;;33.28;50.67;100693.56;5075572;28;66392;-42
2022/02/15 12:10:05;;;;;;;;;;;;;;;33.29;50.88;100703.41;5067816;27;70268;-41
2022/02/15 12:12:39;;;;;;;;;;;;;;;33.24;51.10;100705.16;5063950;28;66364;-41
2022/02/15 12:15:10;;;;;;;;;;;;;;;33.23;51.10;100715.22;5065652;28;69287;-42
2022/02/15 12:17:43;;;;;;;;;;;;;;;33.18;51.07;100722.44;5069379;28;66040;-42
2022/02/15 12:20:32;;;;;;;;;;;;;;;33.15;50.95;100730.03;5046921;28;69906;-42
2022/02/15 12:23:02;;;;;;;;;;;;;;;33.10;51.37;100731.81;5074970;28;66835;-43
2022/02/15 12:25:48;;;;;;;;;;;;;;;33.06;51.65;100730.63;5068281;28;69682;-42
2022/02/15 12:28:25;;;;;;;;;;;;;;;33.05;51.30;100734.41;5051406;28;66546;-42
2022/02/15 12:30:56;;;;;;;;;;;;;;;32.98;51.61;100739.94;5065386;28;70181;-43
2022/02/15 12:33:36;;;;;;;;;;;;;;;33.00;51.56;100739.72;5072268;28;65186;-42
2022/02/15 12:36:21;;;;;;;;;;;;;;;32.93;51.83;100748.81;5081398;28;69654;-41
2022/02/15 12:39:07;;;;;;;;;;;;;;;32.90;51.87;100749.28;5060232;27;66491;-42
2022/02/15 12:41:51;;;;;;;;;;;;;;;32.91;51.96;100740.06;5072435;27;69345;-42
2022/02/15 12:44:21;;;;;;;;;;;;;;;32.86;51.83;100750.81;5083411;28;65422;-42
2022/02/15 12:46:51;;;;;;;;;;;;;;;32.84;52.22;100749.41;5083132;28;70368;-42
2022/02/15 12:49:22;;;;;;;;;;;;;;;32.81;52.40;100758.84;5078441;28;66671;-42
2022/02/15 12:51:52;;;;;;;;;;;;;;;32.72;53.09;100762.97;5066986;28;70062;-44
2022/02/15 12:54:22;;;;;;;;;;;;;;;32.55;53.47;100762.03;5080852;27;66368;-42
2022/02/15 12:56:52;;;;;;;;;;;;;;;32.43;54.40;100770.97;5074656;28;69528;-44
2022/02/15 12:59:23;;;;;;;;;;;;;;;32.29;54.31;100769.53;5072510;28;64736;-44
2022/02/15 13:01:59;;;;;;;;;;;;;;;32.19;54.90;100777.38;5090649;27;67841;-43
2022/02/15 13:04:30;;;;;;;;;;;;;;;32.11;54.92;100775.81;5077544;28;66578;-44
2022/02/15 13:06:59;;;;;;;;;;;;;;;32.09;54.69;100785.25;5077569;28;69682;-41
2022/02/15 13:09:29;;;;;;;;;;;;;;;32.05;55.16;100788.44;5074380;27;66261;-43
2022/02/15 13:12:03;;;;;;;;;;;;;;;32.02;55.69;100788.91;5073233;28;69384;-43
2022/02/15 13:14:33;;;;;;;;;;;;;;;31.95;55.31;100795.47;5067612;28;65308;-43
2022/02/15 13:17:03;;;;;;;;;;;;;;;31.90;55.96;100781.72;5068552;28;69807;-41